createdAt,value
2019-04-26T00:01:12.381Z,26.10
2019-04-26T00:03:43.696Z,26.70
2019-04-26T00:06:15.126Z,27.20
2019-04-26T00:08:46.167Z,29.10
2019-04-26T00:11:19.769Z,32.70
2019-04-26T00:14:07.044Z,31.50
2019-04-26T00:16:40.676Z,30.80
2019-04-26T00:19:11.134Z,29.30
2019-04-26T00:21:41.391Z,30.50
2019-04-26T00:24:11.736Z,30.60
2019-04-26T00:26:41.120Z,30.70
2019-04-26T00:29:11.402Z,27.40
2019-04-26T00:31:40.797Z,28.70
2019-04-26T00:34:11.131Z,29.20
2019-04-26T00:36:41.546Z,27.40
2019-04-26T00:39:11.847Z,27.60
2019-04-26T00:41:42.144Z,28.60
2019-04-26T00:44:12.199Z,29.40
2019-04-26T00:46:45.295Z,27.60
2019-04-26T00:49:15.760Z,27.40
2019-04-26T00:51:45.987Z,27.70
2019-04-26T00:54:15.757Z,27.60
2019-04-26T00:56:45.132Z,26.60
2019-04-26T00:59:16.393Z,28.50
2019-04-26T01:01:47.503Z,28.80
2019-04-26T01:04:17.117Z,29.80
2019-04-26T01:06:48.171Z,29.60
2019-04-26T01:09:18.126Z,28.70
2019-04-26T01:11:47.395Z,30.40
2019-04-26T01:14:17.821Z,28.60
2019-04-26T01:16:47.171Z,30.20
2019-04-26T01:19:18.569Z,29.50
2019-04-26T01:21:53.962Z,32.10
2019-04-26T01:24:25.372Z,29.00
2019-04-26T01:26:57.882Z,30.00
2019-04-26T01:29:28.030Z,29.50
2019-04-26T01:32:09.142Z,30.40
2019-04-26T01:34:40.227Z,28.40
2019-04-26T01:37:10.287Z,30.00
2019-04-26T01:39:43.267Z,29.90
2019-04-26T01:42:14.263Z,29.10
2019-04-26T01:44:53.523Z,29.10
2019-04-26T01:47:24.131Z,30.00
2019-04-26T01:49:53.970Z,30.90
2019-04-26T01:52:24.083Z,30.40
2019-04-26T01:54:53.468Z,34.50
2019-04-26T01:57:25.332Z,31.60
2019-04-26T01:59:58.428Z,34.30
2019-04-26T02:02:29.856Z,33.60
2019-04-26T02:05:00.858Z,32.70
2019-04-26T02:07:40.799Z,32.40
2019-04-26T02:10:18.855Z,32.90
2019-04-26T02:12:50.473Z,31.50
2019-04-26T02:15:23.027Z,31.00
2019-04-26T02:17:55.916Z,31.60
2019-04-26T02:20:52.454Z,32.50
2019-04-26T02:23:23.603Z,33.80
2019-04-26T02:25:54.208Z,33.30
2019-04-26T02:28:23.967Z,31.10
2019-04-26T02:30:54.384Z,31.60
2019-04-26T02:33:25.336Z,32.20
2019-04-26T02:35:54.796Z,31.30
2019-04-26T02:38:25.579Z,35.40
2019-04-26T02:40:55.239Z,33.20
2019-04-26T02:43:28.610Z,34.60
2019-04-26T02:46:02.519Z,33.50
2019-04-26T02:48:39.400Z,33.80
2019-04-26T02:51:17.741Z,35.60
2019-04-26T02:53:56.133Z,35.70
2019-04-26T02:56:40.835Z,35.30
2019-04-26T02:59:13.230Z,35.40
2019-04-26T03:01:42.826Z,34.30
2019-04-26T03:04:12.348Z,32.60
2019-04-26T03:07:01.871Z,31.80
2019-04-26T03:09:16.929Z,33.70
2019-04-26T03:12:06.148Z,31.30
2019-04-26T03:15:12.609Z,33.00
2019-04-26T03:17:48.655Z,31.70
2019-04-26T03:20:22.788Z,29.90
2019-04-26T03:23:04.265Z,30.80
2019-04-26T03:25:37.937Z,31.80
2019-04-26T03:28:22.319Z,30.30
2019-04-26T03:31:06.620Z,32.20
2019-04-26T03:34:02.709Z,31.90
2019-04-26T03:36:45.760Z,30.60
2019-04-26T03:39:28.468Z,32.10
2019-04-26T03:42:19.028Z,31.50
2019-04-26T03:45:10.909Z,30.60
2019-04-26T03:47:46.254Z,30.30
2019-04-26T03:50:24.602Z,31.40
2019-04-26T03:53:10.720Z,29.70
2019-04-26T03:55:45.457Z,30.80
2019-04-26T03:58:31.627Z,30.70
2019-04-26T04:01:05.638Z,30.30
2019-04-26T04:03:55.796Z,31.10
2019-04-26T04:06:29.831Z,29.70
2019-04-26T04:09:07.957Z,31.10
2019-04-26T04:12:09.672Z,30.50
2019-04-26T04:14:37.697Z,30.90
2019-04-26T04:17:17.187Z,30.10
2019-04-26T04:20:19.016Z,30.20
2019-04-26T04:23:00.493Z,29.90
2019-04-26T04:25:39.486Z,30.80
2019-04-26T04:28:31.796Z,33.00
2019-04-26T04:31:07.100Z,30.80
2019-04-26T04:33:43.606Z,32.30
2019-04-26T04:36:16.483Z,33.10
2019-04-26T04:39:12.490Z,32.90
2019-04-26T04:42:00.514Z,34.40
2019-04-26T04:44:49.941Z,32.90
2019-04-26T04:47:30.804Z,32.70
2019-04-26T04:50:17.673Z,34.00
2019-04-26T04:52:55.615Z,33.60
2019-04-26T04:55:56.571Z,33.60
2019-04-26T04:58:37.707Z,36.20
2019-04-26T05:01:23.526Z,36.30
2019-04-26T05:03:55.907Z,38.90
2019-04-26T05:06:51.234Z,37.40
2019-04-26T05:09:28.931Z,39.50
2019-04-26T05:12:10.299Z,41.50
2019-04-26T05:14:52.229Z,41.40
2019-04-26T05:17:49.484Z,42.00
2019-04-26T05:20:31.467Z,40.40
2019-04-26T05:23:29.931Z,44.40
2019-04-26T05:26:32.607Z,43.90
2019-04-26T05:29:32.310Z,42.40
2019-04-26T05:32:39.995Z,40.90
2019-04-26T05:35:25.871Z,38.30
2019-04-26T05:38:18.595Z,38.10
2019-04-26T05:41:19.483Z,41.10
2019-04-26T05:43:59.243Z,42.70
2019-04-26T05:46:39.007Z,42.90
2019-04-26T05:49:37.447Z,44.90
2019-04-26T05:52:44.020Z,41.30
2019-04-26T05:55:56.034Z,43.30
2019-04-26T05:58:48.024Z,46.00
2019-04-26T06:01:30.655Z,49.80
2019-04-26T06:04:57.202Z,47.10
2019-04-26T06:07:54.233Z,50.30
2019-04-26T06:10:40.459Z,49.00
2019-04-26T06:13:23.454Z,50.00
2019-04-26T06:16:16.698Z,49.30
2019-04-26T06:18:59.715Z,50.10
2019-04-26T06:21:38.058Z,49.50
2019-04-26T06:24:34.819Z,54.90
2019-04-26T06:27:20.995Z,52.10
2019-04-26T06:30:05.214Z,54.50
2019-04-26T06:32:40.629Z,56.80
2019-04-26T06:35:22.195Z,54.40
2019-04-26T06:38:21.459Z,55.70
2019-04-26T06:41:02.489Z,53.90
2019-04-26T06:43:42.674Z,53.80
2019-04-26T06:46:36.129Z,55.30
2019-04-26T06:49:16.321Z,57.60
2019-04-26T06:51:48.766Z,59.10
2019-04-26T06:54:56.253Z,56.60
2019-04-26T06:58:01.157Z,56.90
2019-04-26T07:00:59.039Z,56.60
2019-04-26T07:03:31.526Z,58.00
2019-04-26T07:06:04.501Z,57.50
2019-04-26T07:08:57.268Z,58.50
2019-04-26T07:11:48.040Z,58.80
2019-04-26T07:14:38.738Z,61.10
2019-04-26T07:17:13.831Z,59.80
2019-04-26T07:20:04.361Z,58.80
2019-04-26T07:22:50.398Z,60.70
2019-04-26T07:25:53.477Z,57.20
2019-04-26T07:28:47.671Z,56.60
2019-04-26T07:31:38.583Z,60.80
2019-04-26T07:34:21.394Z,57.90
2019-04-26T07:37:11.323Z,62.40
2019-04-26T07:40:12.072Z,63.30
2019-04-26T07:43:06.531Z,58.90
2019-04-26T07:46:01.335Z,58.40
2019-04-26T07:48:58.383Z,59.60
2019-04-26T07:52:02.937Z,60.30
2019-04-26T07:54:44.244Z,61.80
2019-04-26T07:57:21.166Z,61.50
2019-04-26T08:00:02.817Z,61.10
2019-04-26T08:02:55.999Z,57.70
2019-04-26T08:05:53.369Z,54.60
2019-04-26T08:08:26.031Z,52.70
2019-04-26T08:11:14.913Z,52.30
2019-04-26T08:13:52.996Z,53.00
2019-04-26T08:16:33.152Z,56.60
2019-04-26T08:19:08.243Z,55.20
2019-04-26T08:21:47.915Z,52.60
2019-04-26T08:24:19.895Z,52.50
2019-04-26T08:27:13.792Z,51.20
2019-04-26T08:29:38.080Z,50.70
2019-04-26T08:32:11.431Z,54.70
2019-04-26T08:34:43.855Z,51.50
2019-04-26T08:37:20.303Z,50.70
2019-04-26T08:39:52.027Z,52.00
2019-04-26T08:42:25.145Z,49.50
2019-04-26T08:45:04.575Z,50.70
2019-04-26T08:47:36.935Z,53.00
2019-04-26T08:50:16.206Z,56.80
2019-04-26T08:52:48.720Z,56.60
2019-04-26T08:55:20.219Z,57.00
2019-04-26T08:57:52.553Z,55.90
2019-04-26T09:00:24.731Z,54.60
2019-04-26T09:03:11.344Z,55.60
2019-04-26T09:05:45.668Z,55.90
2019-04-26T09:08:16.630Z,56.30
2019-04-26T09:10:48.679Z,52.20
2019-04-26T09:13:21.323Z,54.10
2019-04-26T09:15:59.645Z,52.50
2019-04-26T09:18:29.041Z,55.10
2019-04-26T09:20:58.304Z,54.70
2019-04-26T09:23:50.906Z,54.70
2019-04-26T09:26:30.521Z,54.80
2019-04-26T09:29:17.905Z,55.20
2019-04-26T09:31:55.414Z,55.10
2019-04-26T09:34:26.524Z,56.80
2019-04-26T09:36:55.826Z,57.20
2019-04-26T09:39:25.847Z,58.00
2019-04-26T09:41:56.783Z,58.00
2019-04-26T09:44:27.931Z,57.10
2019-04-26T09:47:14.483Z,56.70
2019-04-26T09:49:51.256Z,57.80
2019-04-26T09:52:22.181Z,57.70
2019-04-26T09:54:51.472Z,56.10
2019-04-26T09:57:20.751Z,58.30
2019-04-26T09:59:50.363Z,56.70
2019-04-26T10:02:19.647Z,57.80
2019-04-26T10:04:48.947Z,58.00
2019-04-26T10:07:18.246Z,55.80
2019-04-26T10:09:47.528Z,54.60
2019-04-26T10:12:18.443Z,53.60
2019-04-26T10:14:55.547Z,54.60
2019-04-26T10:17:26.480Z,56.00
2019-04-26T10:19:56.447Z,57.30
2019-04-26T10:22:27.437Z,55.40
2019-04-26T10:24:56.739Z,55.90
2019-04-26T10:27:26.036Z,55.30
2019-04-26T10:29:55.704Z,54.40
2019-04-26T10:32:27.713Z,55.10
2019-04-26T10:34:57.207Z,49.00
2019-04-26T10:37:38.709Z,51.90
2019-04-26T10:39:57.488Z,51.20
2019-04-26T10:42:26.763Z,51.60
2019-04-26T10:44:56.064Z,54.50
2019-04-26T10:47:25.343Z,50.60
2019-04-26T10:49:58.243Z,53.70
2019-04-26T10:52:27.271Z,50.30
2019-04-26T10:55:07.250Z,52.50
2019-04-26T10:57:41.468Z,51.60
2019-04-26T11:00:14.070Z,48.10
2019-04-26T11:02:43.695Z,49.20
2019-04-26T11:05:18.273Z,48.50
2019-04-26T11:07:43.985Z,47.80
2019-04-26T11:10:13.619Z,44.70
2019-04-26T11:12:44.708Z,45.40
2019-04-26T11:15:15.341Z,40.70
2019-04-26T11:17:46.049Z,42.60
2019-04-26T11:20:15.490Z,47.10
2019-04-26T11:22:44.775Z,45.30
2019-04-26T11:25:14.315Z,46.50
2019-04-26T11:27:44.303Z,47.80
2019-04-26T11:30:20.657Z,43.00
2019-04-26T11:32:46.156Z,42.50
2019-04-26T11:35:15.811Z,40.80
2019-04-26T11:37:46.413Z,41.60
2019-04-26T11:40:16.158Z,43.00
2019-04-26T11:42:45.874Z,41.70
2019-04-26T11:45:16.784Z,36.00
2019-04-26T11:47:55.979Z,37.80
2019-04-26T11:50:17.857Z,36.60
2019-04-26T11:52:47.295Z,34.80
2019-04-26T11:55:16.649Z,36.20
2019-04-26T11:57:47.504Z,36.50
2019-04-26T12:00:27.545Z,34.90
2019-04-26T12:02:56.563Z,35.40
2019-04-26T12:05:30.432Z,37.30
2019-04-26T12:08:01.354Z,36.20
2019-04-26T12:10:30.647Z,36.20
2019-04-26T12:13:05.870Z,37.30
2019-04-26T12:15:31.244Z,38.70
2019-04-26T12:18:00.571Z,33.30
2019-04-26T12:20:29.896Z,32.70
2019-04-26T12:22:59.191Z,35.10
2019-04-26T12:25:30.985Z,38.40
2019-04-26T12:28:01.950Z,34.20
2019-04-26T12:30:30.540Z,36.70
2019-04-26T12:32:59.814Z,37.20
2019-04-26T12:35:30.087Z,38.50
2019-04-26T12:37:59.516Z,36.90
2019-04-26T12:40:28.799Z,36.80
2019-04-26T12:42:58.091Z,34.30
2019-04-26T12:45:38.034Z,34.50
2019-04-26T12:48:15.893Z,36.70
2019-04-26T12:50:46.153Z,36.90
2019-04-26T12:53:17.949Z,36.70
2019-04-26T12:55:49.238Z,38.40
2019-04-26T12:58:17.434Z,38.90
2019-04-26T13:00:53.782Z,38.30
2019-04-26T13:03:20.470Z,40.20
2019-04-26T13:05:49.815Z,42.20
2019-04-26T13:08:19.768Z,40.40
2019-04-26T13:10:53.471Z,40.30
2019-04-26T13:13:24.383Z,40.40
2019-04-26T13:16:11.541Z,42.00
2019-04-26T13:18:41.130Z,39.10
2019-04-26T13:21:11.829Z,42.90
2019-04-26T13:23:41.127Z,42.40
2019-04-26T13:26:10.437Z,42.90
2019-04-26T13:28:39.779Z,44.40
2019-04-26T13:31:09.075Z,44.70
2019-04-26T13:33:38.363Z,45.80
2019-04-26T13:36:07.671Z,43.80
2019-04-26T13:38:39.511Z,43.60
2019-04-26T13:41:08.106Z,40.40
2019-04-26T13:43:37.384Z,36.80
2019-04-26T13:46:08.323Z,35.60
2019-04-26T13:48:43.533Z,27.50
2019-04-26T13:51:14.920Z,23.20
2019-04-26T13:53:44.207Z,27.60
2019-04-26T13:56:13.491Z,29.30
2019-04-26T13:58:42.786Z,27.80
2019-04-26T14:01:14.536Z,25.90
2019-04-26T14:03:43.735Z,26.20
2019-04-26T14:06:13.291Z,25.40
2019-04-26T14:08:42.563Z,27.70
2019-04-26T14:11:11.859Z,23.10
2019-04-26T14:13:41.139Z,23.70
2019-04-26T14:16:10.507Z,21.10
2019-04-26T14:18:40.764Z,22.00
2019-04-26T14:21:10.189Z,22.70
2019-04-26T14:23:49.466Z,21.80
2019-04-26T14:26:29.001Z,20.10
2019-04-26T14:28:59.669Z,20.00
2019-04-26T14:31:29.154Z,20.40
2019-04-26T14:34:01.304Z,19.80
2019-04-26T14:36:29.427Z,19.70
2019-04-26T14:39:05.583Z,19.90
2019-04-26T14:41:30.018Z,20.40
2019-04-26T14:43:59.394Z,19.50
2019-04-26T14:46:28.704Z,19.90
2019-04-26T14:49:02.146Z,20.40
2019-04-26T14:51:29.288Z,20.50
2019-04-26T14:53:58.871Z,19.50
2019-04-26T14:56:29.320Z,20.20
2019-04-26T14:59:01.852Z,18.80
2019-04-26T15:01:35.145Z,20.20
2019-04-26T15:04:23.128Z,18.50
2019-04-26T15:06:58.196Z,21.40
2019-04-26T15:09:32.930Z,20.20
2019-04-26T15:12:00.933Z,20.60
2019-04-26T15:14:27.119Z,19.50
2019-04-26T15:16:56.452Z,20.20
2019-04-26T15:19:25.804Z,18.80
2019-04-26T15:21:55.135Z,20.50
2019-04-26T15:24:25.891Z,22.50
2019-04-26T15:26:58.106Z,22.40
2019-04-26T15:29:28.160Z,20.60
2019-04-26T15:31:58.331Z,20.40
2019-04-26T15:34:27.747Z,20.40
2019-04-26T15:36:57.059Z,20.80
2019-04-26T15:39:39.955Z,21.70
2019-04-26T15:42:13.675Z,21.60
2019-04-26T15:44:57.444Z,22.80
2019-04-26T15:47:29.280Z,22.80
2019-04-26T15:50:05.556Z,22.20
2019-04-26T15:52:34.064Z,21.90
2019-04-26T15:55:05.405Z,21.50
2019-04-26T15:57:34.675Z,22.00
2019-04-26T16:00:07.879Z,21.60
2019-04-26T16:02:37.167Z,19.20
2019-04-26T16:05:07.483Z,19.70
2019-04-26T16:07:36.779Z,20.70
2019-04-26T16:10:07.098Z,18.60
2019-04-26T16:12:38.173Z,19.60
2019-04-26T16:15:11.410Z,19.20
2019-04-26T16:17:40.134Z,19.20
2019-04-26T16:20:10.090Z,19.60
2019-04-26T16:22:39.637Z,19.70
2019-04-26T16:25:09.091Z,19.50
2019-04-26T16:27:38.651Z,20.40
2019-04-26T16:30:28.416Z,20.30
2019-04-26T16:33:03.046Z,20.00
2019-04-26T16:35:32.498Z,20.20
2019-04-26T16:38:06.953Z,19.80
2019-04-26T16:40:34.748Z,21.30
2019-04-26T16:43:04.269Z,19.40
2019-04-26T16:45:37.280Z,20.00
2019-04-26T16:48:04.590Z,20.70
2019-04-26T16:50:38.184Z,21.00
2019-04-26T16:53:04.871Z,20.20
2019-04-26T16:55:37.742Z,20.10
2019-04-26T16:58:05.331Z,21.20
2019-04-26T17:00:50.777Z,22.40
2019-04-26T17:03:07.911Z,22.60
2019-04-26T17:05:47.756Z,21.40
2019-04-26T17:08:10.423Z,21.90
2019-04-26T17:10:38.989Z,21.90
2019-04-26T17:13:08.348Z,22.70
2019-04-26T17:15:37.639Z,23.40
2019-04-26T17:18:06.934Z,22.70
2019-04-26T17:20:36.210Z,24.40
2019-04-26T17:23:13.159Z,23.10
2019-04-26T17:25:47.103Z,24.00
2019-04-26T17:28:18.085Z,24.50
2019-04-26T17:30:47.791Z,24.10
2019-04-26T17:33:17.407Z,24.00
2019-04-26T17:35:46.694Z,24.90
2019-04-26T17:38:15.977Z,24.90
2019-04-26T17:40:46.300Z,25.60
2019-04-26T17:43:15.847Z,25.30
2019-04-26T17:45:45.143Z,25.20
2019-04-26T17:48:14.436Z,25.20
2019-04-26T17:50:43.747Z,25.60
2019-04-26T17:53:25.785Z,26.30
2019-04-26T17:55:45.836Z,25.70
2019-04-26T17:58:17.759Z,26.10
2019-04-26T18:00:46.908Z,26.00
2019-04-26T18:03:16.433Z,26.40
2019-04-26T18:05:56.664Z,26.10
2019-04-26T18:08:33.549Z,26.90
2019-04-26T18:10:48.099Z,27.80
2019-04-26T18:13:17.987Z,28.70
2019-04-26T18:15:48.552Z,29.10
2019-04-26T18:18:23.341Z,30.30
2019-04-26T18:20:54.343Z,31.90
2019-04-26T18:23:24.691Z,31.00
2019-04-26T18:25:53.987Z,29.40
2019-04-26T18:28:23.378Z,29.10
2019-04-26T18:30:53.176Z,30.00
2019-04-26T18:33:25.962Z,31.20
2019-04-26T18:35:57.478Z,29.10
2019-04-26T18:38:24.914Z,29.20
2019-04-26T18:41:00.886Z,27.90
2019-04-26T18:43:28.179Z,26.90
2019-04-26T18:46:03.330Z,28.50
2019-04-26T18:48:40.278Z,30.40
2019-04-26T18:51:07.527Z,28.30
2019-04-26T18:53:41.574Z,30.10
2019-04-26T18:56:17.119Z,32.40
2019-04-26T18:58:51.506Z,30.30
2019-04-26T19:01:20.852Z,27.40
2019-04-26T19:03:50.161Z,28.40
2019-04-26T19:06:29.759Z,28.10
2019-04-26T19:08:53.463Z,28.70
2019-04-26T19:11:28.271Z,27.60
2019-04-26T19:14:06.452Z,29.10
2019-04-26T19:16:37.745Z,31.70
2019-04-26T19:19:08.778Z,32.50
2019-04-26T19:21:50.617Z,34.10
2019-04-26T19:24:21.445Z,35.50
2019-04-26T19:26:51.454Z,36.60
2019-04-26T19:29:32.674Z,36.60
2019-04-26T19:32:01.009Z,36.60
2019-04-26T19:34:31.306Z,37.50
2019-04-26T19:37:03.368Z,36.90
2019-04-26T19:39:35.504Z,37.70
2019-04-26T19:42:06.141Z,37.40
2019-04-26T19:44:35.057Z,37.50
2019-04-26T19:47:19.582Z,38.20
2019-04-26T19:49:57.747Z,38.00
2019-04-26T19:52:42.459Z,36.90
2019-04-26T19:55:23.817Z,37.10
2019-04-26T19:58:09.526Z,38.00
2019-04-26T20:00:42.518Z,38.20
2019-04-26T20:03:13.433Z,38.40
2019-04-26T20:05:44.144Z,38.80
2019-04-26T20:08:13.876Z,38.50
2019-04-26T20:10:45.499Z,38.80
2019-04-26T20:13:16.273Z,39.10
2019-04-26T20:15:45.731Z,39.10
2019-04-26T20:18:17.574Z,39.10
2019-04-26T20:20:52.231Z,38.40
2019-04-26T20:23:23.199Z,37.50
2019-04-26T20:25:52.999Z,37.80
2019-04-26T20:28:24.087Z,37.00
2019-04-26T20:30:57.954Z,36.50
2019-04-26T20:33:31.127Z,36.60
2019-04-26T20:36:01.912Z,38.30
2019-04-26T20:38:42.879Z,41.40
2019-04-26T20:41:07.167Z,45.30
2019-04-26T20:43:46.231Z,47.70
2019-04-26T20:46:16.516Z,49.60
2019-04-26T20:48:47.437Z,47.10
2019-04-26T20:51:18.377Z,46.20
2019-04-26T20:53:57.499Z,42.10
2019-04-26T20:56:28.974Z,41.50
2019-04-26T20:59:01.582Z,43.20
2019-04-26T21:01:36.274Z,47.70
2019-04-26T21:04:05.567Z,47.20
2019-04-26T21:06:36.951Z,47.20
2019-04-26T21:09:08.079Z,47.90
2019-04-26T21:11:38.346Z,51.70
2019-04-26T21:14:08.763Z,51.90
2019-04-26T21:16:38.195Z,54.70
2019-04-26T21:19:07.503Z,53.90
2019-04-26T21:21:36.778Z,55.20
2019-04-26T21:24:06.154Z,52.90
2019-04-26T21:26:46.622Z,48.30
2019-04-26T21:29:20.453Z,46.00
2019-04-26T21:31:51.047Z,44.30
2019-04-26T21:34:21.995Z,40.00
2019-04-26T21:36:53.250Z,41.40
2019-04-26T21:39:24.346Z,45.20
2019-04-26T21:42:01.535Z,45.40
2019-04-26T21:44:30.827Z,41.60
2019-04-26T21:47:00.235Z,45.30
2019-04-26T21:49:29.602Z,43.10
2019-04-26T21:51:58.896Z,46.30
2019-04-26T21:54:28.448Z,44.70
2019-04-26T21:56:57.743Z,44.90
2019-04-26T21:59:27.259Z,45.40
2019-04-26T22:01:59.185Z,48.60
2019-04-26T22:04:28.897Z,49.30
2019-04-26T22:06:59.893Z,48.20
2019-04-26T22:09:36.717Z,46.80
2019-04-26T22:12:07.382Z,45.30
2019-04-26T22:14:38.383Z,45.50
2019-04-26T22:17:13.524Z,44.90
2019-04-26T22:19:44.911Z,43.50
2019-04-26T22:22:23.218Z,45.60
2019-04-26T22:24:55.530Z,48.60
2019-04-26T22:27:25.522Z,44.80
2019-04-26T22:29:55.199Z,43.70
2019-04-26T22:32:24.598Z,46.80
2019-04-26T22:34:54.246Z,44.30
2019-04-26T22:37:30.027Z,46.20
2019-04-26T22:39:54.864Z,44.50
2019-04-26T22:42:24.587Z,45.40
2019-04-26T22:44:55.505Z,47.30
2019-04-26T22:47:26.438Z,47.30
2019-04-26T22:49:55.967Z,47.20
2019-04-26T22:52:25.575Z,46.30
2019-04-26T22:54:54.855Z,47.60
2019-04-26T22:57:24.223Z,47.70
2019-04-26T22:59:53.708Z,46.00
2019-04-26T23:02:27.548Z,47.40
2019-04-26T23:05:00.678Z,46.60
2019-04-26T23:07:27.734Z,46.00
2019-04-26T23:09:57.011Z,45.00
2019-04-26T23:12:33.948Z,46.10
2019-04-26T23:15:11.095Z,46.10
2019-04-26T23:17:58.530Z,47.80
2019-04-26T23:20:37.802Z,45.70
2019-04-26T23:23:08.547Z,45.80
2019-04-26T23:25:37.898Z,47.10
2019-04-26T23:28:07.171Z,44.20
2019-04-26T23:30:36.462Z,45.60
2019-04-26T23:33:05.832Z,44.80
2019-04-26T23:35:37.518Z,44.80
2019-04-26T23:38:06.166Z,42.40
2019-04-26T23:40:35.443Z,46.60
2019-04-26T23:43:04.742Z,46.20
2019-04-26T23:45:34.018Z,47.10
2019-04-26T23:48:03.612Z,46.20
2019-04-26T23:50:34.077Z,46.50
2019-04-26T23:53:03.679Z,46.50
2019-04-26T23:55:33.816Z,46.40
2019-04-26T23:58:06.506Z,46.90
